Time;durP1;ratioP1;P1;durP2;ratioP2;P2;SDS_P1;SDS_P2;PMS_P1;PMS_P2;Temp;Humidity;BMP_temperature;BMP_pressure;BME280_temperature;BME280_humidity;BME280_pressure;Samples;Min_cycle;Max_cycle;Signal;HPM_P1;HPM_P2
2023/03/20 00:02:18;;;;;;;1.70;1.50;;;;;;;8.70;100.00;98377.06;5054735;28;20702;-83
2023/03/20 00:04:45;;;;;;;1.50;1.33;;;;;;;8.70;100.00;98374.44;5054643;28;20245;-78
2023/03/20 00:07:13;;;;;;;1.93;1.50;;;;;;;8.72;100.00;98377.81;5054480;28;20238;-78
2023/03/20 00:09:39;;;;;;;1.40;1.30;;;;;;;8.74;100.00;98384.69;5054278;28;20215;-78
2023/03/20 00:12:06;;;;;;;1.63;1.10;;;;;;;8.78;100.00;98382.72;5054449;28;20211;-78
2023/03/20 00:14:34;;;;;;;1.40;1.30;;;;;;;8.82;100.00;98381.63;5054466;28;20224;-78
2023/03/20 00:17:01;;;;;;;1.30;1.20;;;;;;;8.85;100.00;98386.69;5054158;28;20224;-78
2023/03/20 00:19:29;;;;;;;3.47;1.67;;;;;;;8.85;100.00;98378.78;5053944;28;20488;-77
2023/03/20 00:21:56;;;;;;;1.50;1.40;;;;;;;8.84;100.00;98374.47;5054356;28;20220;-77
2023/03/20 00:24:25;;;;;;;1.30;1.20;;;;;;;8.81;100.00;98372.03;5054240;28;20206;-77
2023/03/20 00:26:52;;;;;;;1.23;1.10;;;;;;;8.79;100.00;98381.78;5053983;28;20246;-77
2023/03/20 00:29:22;;;;;;;1.60;1.50;;;;;;;8.78;100.00;98380.09;5053727;28;20206;-78
2023/03/20 00:31:49;;;;;;;1.33;1.23;;;;;;;8.82;100.00;98384.25;5054071;28;20211;-78
2023/03/20 00:34:18;;;;;;;1.50;1.40;;;;;;;8.81;100.00;98387.84;5053988;28;20237;-77
2023/03/20 00:36:44;;;;;;;1.33;1.23;;;;;;;8.82;100.00;98379.00;5054117;28;20255;-78
2023/03/20 00:39:11;;;;;;;1.87;1.40;;;;;;;8.79;100.00;98384.41;5053650;28;20206;-78
2023/03/20 00:41:43;;;;;;;1.60;1.50;;;;;;;8.78;100.00;98390.63;5053894;28;20239;-78
2023/03/20 00:44:20;;;;;;;2.23;1.63;;;;;;;8.81;100.00;98399.22;5053738;28;20209;-78
2023/03/20 00:46:50;;;;;;;1.47;1.37;;;;;;;8.81;100.00;98398.38;5053759;28;20721;-78
2023/03/20 00:49:16;;;;;;;1.30;1.20;;;;;;;8.80;100.00;98396.66;5053637;28;20219;-78
2023/03/20 00:51:43;;;;;;;1.60;1.50;;;;;;;8.81;100.00;98398.38;5053784;28;20222;-78
2023/03/20 00:54:12;;;;;;;3.97;1.40;;;;;;;8.81;100.00;98395.75;5053615;28;20323;-78
2023/03/20 00:56:43;;;;;;;1.50;1.40;;;;;;;8.78;100.00;98388.00;5053320;28;20231;-78
2023/03/20 00:59:16;;;;;;;1.70;1.60;;;;;;;8.76;100.00;98395.97;5053223;28;20668;-78
2023/03/20 01:01:43;;;;;;;1.50;1.40;;;;;;;8.76;100.00;98401.25;5053669;28;20215;-78
2023/03/20 01:04:12;;;;;;;1.60;1.40;;;;;;;8.74;100.00;98389.97;5053435;28;20586;-78
2023/03/20 01:06:39;;;;;;;1.80;1.70;;;;;;;8.75;100.00;98394.28;5053368;28;20245;-78
2023/03/20 01:09:05;;;;;;;1.80;1.70;;;;;;;8.80;100.00;98397.50;5053146;28;20267;-78
2023/03/20 01:11:32;;;;;;;2.03;1.83;;;;;;;8.82;100.00;98400.06;5053409;28;20584;-78
2023/03/20 01:14:01;;;;;;;2.47;2.03;;;;;;;8.79;100.00;98394.97;5053407;28;20232;-79
2023/03/20 01:16:27;;;;;;;2.10;1.90;;;;;;;8.78;100.00;98399.41;5053362;28;20277;-79
2023/03/20 01:18:54;;;;;;;2.20;2.00;;;;;;;8.79;100.00;98400.22;5053353;28;20218;-79
2023/03/20 01:21:21;;;;;;;1.87;1.70;;;;;;;8.87;100.00;98392.75;5052830;28;20615;-78
2023/03/20 01:23:48;;;;;;;2.00;1.90;;;;;;;8.88;100.00;98389.16;5053009;28;20227;-78
2023/03/20 01:26:22;;;;;;;2.80;2.10;;;;;;;8.86;100.00;98394.53;5052988;28;20324;-79
2023/03/20 01:28:49;;;;;;;3.03;2.27;;;;;;;8.91;100.00;98391.63;5053070;28;20215;-79
2023/03/20 01:31:17;;;;;;;2.30;2.10;;;;;;;8.89;100.00;98388.22;5052752;28;20302;-79
2023/03/20 01:33:44;;;;;;;2.47;2.20;;;;;;;8.89;100.00;98390.88;5052708;28;20236;-78
2023/03/20 01:36:12;;;;;;;3.13;2.77;;;;;;;8.95;100.00;98396.63;5052614;28;20229;-79
2023/03/20 01:38:40;;;;;;;3.20;2.50;;;;;;;8.93;100.00;98392.41;5052774;28;20239;-79
2023/03/20 01:41:12;;;;;;;2.70;2.50;;;;;;;8.94;100.00;98394.91;5052566;28;20211;-79
2023/03/20 01:43:39;;;;;;;2.77;2.57;;;;;;;9.05;100.00;98387.22;5052764;28;20218;-79
2023/03/20 01:46:17;;;;;;;3.07;2.60;;;;;;;8.99;100.00;98392.88;5052913;28;20242;-79
2023/03/20 01:49:09;;;;;;;2.93;2.73;;;;;;;8.95;100.00;98395.78;5052556;28;20270;-79
2023/03/20 01:51:36;;;;;;;3.20;2.90;;;;;;;8.94;100.00;98394.91;5052615;28;20207;-79
2023/03/20 01:54:07;;;;;;;3.53;2.90;;;;;;;8.96;100.00;98402.75;5052396;28;20228;-79
2023/03/20 01:56:39;;;;;;;2.63;2.43;;;;;;;8.97;100.00;98404.44;5052475;28;20231;-78
2023/03/20 01:59:10;;;;;;;3.47;3.17;;;;;;;8.98;100.00;98400.84;5052209;28;20361;-78
2023/03/20 02:01:39;;;;;;;3.20;2.90;;;;;;;8.97;100.00;98404.44;5052655;28;20302;-78
2023/03/20 02:04:07;;;;;;;3.27;2.90;;;;;;;8.91;100.00;98410.06;5052423;28;20209;-78
2023/03/20 02:06:36;;;;;;;3.53;3.23;;;;;;;8.91;100.00;98410.06;5052252;28;20624;-78
2023/03/20 02:09:04;;;;;;;3.33;3.00;;;;;;;8.96;100.00;98418.56;5052225;28;20212;-78
2023/03/20 02:11:31;;;;;;;3.30;3.00;;;;;;;8.94;100.00;98416.00;5051749;28;20219;-78
2023/03/20 02:14:00;;;;;;;3.33;3.03;;;;;;;8.95;100.00;98422.13;5051750;28;20227;-78
2023/03/20 02:16:27;;;;;;;4.07;3.43;;;;;;;8.93;100.00;98424.03;5052074;28;20614;-78
2023/03/20 02:18:57;;;;;;;3.53;3.23;;;;;;;8.93;100.00;98421.38;5052080;28;20222;-78
2023/03/20 02:21:58;;;;;;;3.53;3.20;;;;;;;8.93;100.00;98424.03;5051908;28;20324;-78
2023/03/20 02:24:54;;;;;;;3.57;3.27;;;;;;;8.94;100.00;98425.72;5052130;28;20555;-78
2023/03/20 02:27:30;;;;;;;3.90;2.77;;;;;;;8.88;100.00;98420.81;5051875;28;20252;-78
2023/03/20 02:30:23;;;;;;;3.00;2.80;;;;;;;8.87;100.00;98424.38;5051736;28;20331;-78
2023/03/20 02:33:08;;;;;;;4.33;3.30;;;;;;;8.84;100.00;98430.69;5052022;28;20204;-78
2023/03/20 02:36:21;;;;;;;3.40;3.10;;;;;;;8.84;100.00;98430.69;5051678;28;20232;-78
2023/03/20 02:39:06;;;;;;;3.23;2.93;;;;;;;8.88;100.00;98426.06;4951262;29;20266;-78
2023/03/20 02:41:40;;;;;;;2.77;2.57;;;;;;;8.89;100.00;98433.03;5038211;28;20212;-78
2023/03/20 02:44:12;;;;;;;2.67;2.47;;;;;;;8.89;100.00;98427.75;5051582;28;20219;-78
2023/03/20 02:46:46;;;;;;;2.33;2.13;;;;;;;8.89;100.00;98427.75;5051395;28;20227;-78
2023/03/20 02:49:24;;;;;;;2.43;2.23;;;;;;;8.87;100.00;98424.38;5051212;28;20214;-78
2023/03/20 02:51:58;;;;;;;5.00;2.73;;;;;;;8.83;100.00;98418.44;5051543;28;20268;-78
2023/03/20 02:54:33;;;;;;;2.20;2.03;;;;;;;8.84;100.00;98424.53;5051308;28;20708;-78
2023/03/20 02:57:04;;;;;;;2.57;2.10;;;;;;;8.86;100.00;98427.94;5051233;28;20254;-78
2023/03/20 02:59:36;;;;;;;2.30;2.10;;;;;;;8.83;100.00;98422.84;5050908;28;20270;-78
2023/03/20 03:02:07;;;;;;;2.20;2.00;;;;;;;8.85;100.00;98432.38;5051204;28;20210;-78
2023/03/20 03:04:38;;;;;;;1.87;1.70;;;;;;;8.85;100.00;98427.09;5051630;28;20211;-78
2023/03/20 03:07:07;;;;;;;1.83;1.73;;;;;;;8.82;100.00;98431.69;5051213;28;20228;-78
2023/03/20 03:09:39;;;;;;;1.97;1.30;;;;;;;8.79;100.00;98431.84;5050863;28;20219;-78
2023/03/20 03:12:11;;;;;;;2.57;1.50;;;;;;;8.76;100.00;98432.03;5050927;28;20742;-78
2023/03/20 03:14:41;;;;;;;2.17;1.70;;;;;;;8.78;100.00;98438.06;5051266;28;20242;-78
2023/03/20 03:17:09;;;;;;;1.50;1.40;;;;;;;8.78;100.00;98431.03;5050967;28;20250;-78
2023/03/20 03:19:40;;;;;;;1.37;1.27;;;;;;;8.81;100.00;98436.09;5050795;28;20215;-78
2023/03/20 03:22:07;;;;;;;2.43;2.00;;;;;;;8.82;100.00;98436.97;5050966;28;20212;-78
2023/03/20 03:24:37;;;;;;;1.90;1.80;;;;;;;8.78;100.00;98435.44;5049957;28;20244;-77
2023/03/20 03:27:10;;;;;;;1.60;1.50;;;;;;;8.76;100.00;98437.31;5050575;28;20247;-77
2023/03/20 03:29:39;;;;;;;1.50;1.40;;;;;;;8.74;100.00;98447.06;5050726;28;20249;-79
2023/03/20 03:32:19;;;;;;;1.23;1.13;;;;;;;8.74;100.00;98439.16;5050772;28;20621;-77
2023/03/20 03:34:45;;;;;;;0.90;0.90;;;;;;;8.78;100.00;98445.97;5050633;28;20298;-79
2023/03/20 03:37:21;;;;;;;1.03;0.93;;;;;;;8.78;100.00;98448.59;5050789;28;20238;-77
2023/03/20 03:39:53;;;;;;;0.90;0.90;;;;;;;8.85;100.00;98452.59;5050683;28;20588;-77
2023/03/20 03:42:26;;;;;;;1.53;1.30;;;;;;;8.80;100.00;98452.00;5050868;28;20215;-77
2023/03/20 03:45:00;;;;;;;1.20;1.10;;;;;;;8.79;100.00;98452.94;5050649;28;20227;-77
2023/03/20 03:47:32;;;;;;;1.00;0.90;;;;;;;8.79;100.00;98453.81;5050654;28;20215;-77
2023/03/20 03:50:03;;;;;;;0.80;0.80;;;;;;;8.82;100.00;98458.06;5050502;28;20580;-77
2023/03/20 03:52:32;;;;;;;1.43;1.07;;;;;;;8.81;100.00;98461.63;5050537;28;20302;-77
2023/03/20 03:55:04;;;;;;;0.93;0.93;;;;;;;8.81;100.00;98453.72;5050426;28;20728;-78
2023/03/20 03:57:36;;;;;;;1.40;0.67;;;;;;;8.78;100.00;98446.84;5050508;28;20211;-78
2023/03/20 04:00:06;;;;;;;1.30;1.10;;;;;;;8.78;100.00;98451.25;5050157;28;20206;-77
2023/03/20 04:02:34;;;;;;;0.80;0.80;;;;;;;8.75;100.00;98452.25;5050785;28;20211;-77
2023/03/20 04:05:03;;;;;;;0.80;0.80;;;;;;;8.77;100.00;98462.72;5050502;28;20211;-79
2023/03/20 04:07:29;;;;;;;1.00;0.90;;;;;;;8.75;100.00;98461.97;5050538;28;20297;-79
2023/03/20 04:09:56;;;;;;;0.80;0.80;;;;;;;8.73;100.00;98463.81;5050304;28;20693;-79
2023/03/20 04:12:34;;;;;;;0.90;0.90;;;;;;;8.70;100.00;98475.38;5050308;28;20242;-78
2023/03/20 04:15:01;;;;;;;0.97;0.90;;;;;;;8.73;100.00;98474.38;5050391;28;20228;-78
2023/03/20 04:17:27;;;;;;;1.00;0.93;;;;;;;8.79;100.00;98477.53;5050343;28;20227;-76
2023/03/20 04:19:54;;;;;;;0.87;0.83;;;;;;;8.74;100.00;98468.16;5050181;28;20215;-79
2023/03/20 04:22:20;;;;;;;0.93;0.90;;;;;;;8.75;100.00;98467.25;5050311;28;20294;-77
2023/03/20 04:24:46;;;;;;;1.17;1.03;;;;;;;8.75;100.00;98472.53;5050129;28;20208;-77
2023/03/20 04:27:13;;;;;;;1.10;1.00;;;;;;;8.72;100.00;98464.78;5050577;28;20229;-79
2023/03/20 04:29:41;;;;;;;1.10;1.00;;;;;;;8.67;100.00;98466.81;5050175;28;20221;-77
2023/03/20 04:32:07;;;;;;;1.30;1.20;;;;;;;8.62;100.00;98460.97;5050421;28;20214;-77
2023/03/20 04:34:34;;;;;;;1.10;1.00;;;;;;;8.59;100.00;98461.13;5049941;28;20235;-78
2023/03/20 04:37:00;;;;;;;1.20;1.10;;;;;;;8.56;100.00;98458.69;5053426;28;20235;-79
2023/03/20 04:39:27;;;;;;;1.30;1.20;;;;;;;8.53;100.00;98458.84;5053490;28;20212;-78
2023/03/20 04:41:54;;;;;;;1.40;1.10;;;;;;;8.49;100.00;98459.94;5053837;28;20219;-78
2023/03/20 04:44:21;;;;;;;1.13;1.10;;;;;;;8.51;100.00;98458.91;5053994;28;20454;-78
2023/03/20 04:46:49;;;;;;;1.47;1.00;;;;;;;8.52;100.00;98459.78;5053817;28;20236;-78
2023/03/20 04:49:15;;;;;;;1.20;1.10;;;;;;;8.49;100.00;98462.56;5053444;28;20237;-78
2023/03/20 04:51:42;;;;;;;1.47;1.37;;;;;;;8.45;100.00;98464.53;5053699;28;20297;-78
2023/03/20 04:54:08;;;;;;;1.20;1.10;;;;;;;8.51;100.00;98468.63;5053600;28;20215;-78
2023/03/20 04:56:35;;;;;;;1.80;1.10;;;;;;;8.50;100.00;98466.94;5053616;28;20236;-77
2023/03/20 04:59:01;;;;;;;1.27;1.17;;;;;;;8.54;100.00;98473.69;5053555;28;20217;-77
2023/03/20 05:01:28;;;;;;;1.50;1.13;;;;;;;8.51;100.00;98471.25;5053388;28;20216;-77
2023/03/20 05:03:59;;;;;;;1.30;1.20;;;;;;;8.54;100.00;98479.84;5053362;28;20207;-77
2023/03/20 05:06:26;;;;;;;1.20;1.10;;;;;;;8.52;100.00;98480.84;5053472;28;20249;-77
2023/03/20 05:08:52;;;;;;;1.20;1.10;;;;;;;8.50;100.00;98477.47;5053364;28;20695;-77
2023/03/20 05:11:18;;;;;;;1.43;1.20;;;;;;;8.58;100.00;98486.63;5053084;28;20215;-77
2023/03/20 05:13:45;;;;;;;1.13;1.03;;;;;;;8.58;100.00;98486.63;5053527;28;20212;-78
2023/03/20 05:16:11;;;;;;;1.07;1.00;;;;;;;8.59;100.00;98488.34;5053323;28;20294;-77
2023/03/20 05:18:38;;;;;;;1.20;1.10;;;;;;;8.57;100.00;98490.19;5053252;28;20211;-77
2023/03/20 05:21:07;;;;;;;1.73;1.00;;;;;;;8.61;100.00;98497.00;5052897;28;20620;-77
2023/03/20 05:23:34;;;;;;;1.30;1.20;;;;;;;8.59;100.00;98498.00;5053219;28;20223;-77
2023/03/20 05:26:00;;;;;;;1.10;1.10;;;;;;;8.59;100.00;98498.88;5073351;22;20253;-77
2023/03/20 05:28:27;;;;;;;1.37;1.20;;;;;;;8.60;100.00;98499.72;5073756;28;20209;-76
2023/03/20 05:30:54;;;;;;;2.33;1.27;;;;;;;8.58;100.00;98493.69;5072905;28;20580;-78
2023/03/20 05:33:20;;;;;;;1.50;1.20;;;;;;;8.64;100.00;98488.06;5073410;28;20214;-77
2023/03/20 05:35:47;;;;;;;1.30;1.20;;;;;;;8.62;100.00;98487.31;5073173;28;20235;-76
2023/03/20 05:38:14;;;;;;;1.30;1.10;;;;;;;8.62;100.00;98484.69;5073475;28;20211;-77
2023/03/20 05:40:41;;;;;;;1.77;1.30;;;;;;;8.59;100.00;98487.47;5073254;28;20214;-77
2023/03/20 05:43:08;;;;;;;1.73;1.20;;;;;;;8.62;100.00;98487.31;5073422;28;20748;-77
2023/03/20 05:45:34;;;;;;;2.43;1.33;;;;;;;8.61;100.00;98489.09;5078890;28;20231;-77
2023/03/20 05:48:01;;;;;;;1.30;1.20;;;;;;;8.65;100.00;98497.66;5076225;28;20236;-77
2023/03/20 05:50:27;;;;;;;1.40;1.30;;;;;;;8.63;100.00;98489.84;5075862;28;20217;-76
2023/03/20 05:52:54;;;;;;;1.40;1.30;;;;;;;8.64;100.00;98488.91;5073029;28;20203;-75
2023/03/20 05:55:22;;;;;;;1.33;1.23;;;;;;;8.67;100.00;98501.06;5072968;28;20234;-75
2023/03/20 05:57:48;;;;;;;1.20;1.10;;;;;;;8.68;100.00;98508.88;5073010;28;20218;-76
2023/03/20 06:00:16;;;;;;;1.97;1.20;;;;;;;8.69;100.00;98504.47;5072646;28;20308;-76
2023/03/20 06:02:42;;;;;;;1.27;0.97;;;;;;;8.69;100.00;98510.59;5072851;28;20295;-76
2023/03/20 06:05:10;;;;;;;1.83;1.00;;;;;;;8.70;100.00;98506.19;5072682;28;20203;-76
2023/03/20 06:07:36;;;;;;;1.20;1.10;;;;;;;8.71;100.00;98519.28;5075377;28;20304;-77
2023/03/20 06:10:03;;;;;;;1.77;0.90;;;;;;;8.74;100.00;98510.31;5076950;28;20211;-77
2023/03/20 06:12:30;;;;;;;1.33;1.00;;;;;;;8.79;100.00;98522.31;5076951;28;20217;-76
2023/03/20 06:14:57;;;;;;;1.10;0.97;;;;;;;8.79;100.00;98518.81;5076832;28;20225;-78
2023/03/20 06:17:23;;;;;;;1.23;1.00;;;;;;;8.83;100.00;98517.72;5075751;28;20231;-77
2023/03/20 06:19:50;;;;;;;2.20;1.20;;;;;;;8.85;100.00;98521.13;5073257;28;20210;-75
2023/03/20 06:22:16;;;;;;;0.97;0.90;;;;;;;8.87;100.00;98524.53;5072259;28;20699;-75
2023/03/20 06:24:43;;;;;;;1.10;1.00;;;;;;;8.96;100.00;98524.00;5072131;28;20256;-74
2023/03/20 06:27:09;;;;;;;1.60;1.30;;;;;;;8.97;100.00;98523.94;5071209;28;20242;-75
2023/03/20 06:29:37;;;;;;;1.40;1.30;;;;;;;9.02;100.00;98519.25;5072075;28;20210;-76
2023/03/20 06:32:06;;;;;;;1.50;1.10;;;;;;;9.01;100.00;98517.53;5072043;28;20344;-75
2023/03/20 06:34:33;;;;;;;0.90;0.90;;;;;;;9.02;100.00;98513.97;5072083;28;20211;-75
2023/03/20 06:36:59;;;;;;;1.20;1.00;;;;;;;9.06;100.00;98517.28;5071821;28;20617;-75
2023/03/20 06:39:27;;;;;;;1.70;1.60;;;;;;;9.06;100.00;98504.09;5072002;28;20213;-75
2023/03/20 06:41:54;;;;;;;1.63;1.20;;;;;;;9.14;100.00;98507.13;5072136;28;20285;-75
2023/03/20 06:44:20;;;;;;;1.17;1.07;;;;;;;9.15;100.00;98508.84;5071936;28;20256;-74
2023/03/20 06:46:48;;;;;;;1.60;1.17;;;;;;;9.19;100.00;98505.91;5071765;28;20226;-74
2023/03/20 06:49:15;;;;;;;1.10;1.00;;;;;;;9.18;100.00;98513.94;5071926;28;20590;-74
2023/03/20 06:51:42;;;;;;;1.87;1.30;;;;;;;9.22;100.00;98510.16;5071952;28;20213;-74
2023/03/20 06:54:08;;;;;;;1.00;0.90;;;;;;;9.24;100.00;98508.31;5071664;28;20209;-75
2023/03/20 06:56:35;;;;;;;1.60;1.33;;;;;;;9.33;100.00;98516.53;5071429;28;20227;-74
2023/03/20 06:59:01;;;;;;;1.27;1.17;;;;;;;9.44;100.00;98515.91;5071428;28;20211;-76
2023/03/20 07:01:28;;;;;;;1.17;1.07;;;;;;;9.55;100.00;98521.41;5071787;28;20237;-75
2023/03/20 07:03:56;;;;;;;2.40;1.10;;;;;;;9.74;100.00;98514.09;5071644;28;20665;-76
2023/03/20 07:06:22;;;;;;;1.20;1.10;;;;;;;9.84;100.00;98516.09;5071656;28;20234;-75
2023/03/20 07:08:50;;;;;;;1.50;1.20;;;;;;;10.00;100.00;98526.56;5071621;28;20226;-74
2023/03/20 07:11:17;;;;;;;2.60;1.40;;;;;;;10.13;100.00;98524.91;5070191;28;20219;-75
2023/03/20 07:13:44;;;;;;;1.30;1.20;;;;;;;10.21;100.00;98520.03;5069816;28;20256;-75
2023/03/20 07:16:11;;;;;;;1.10;1.00;;;;;;;10.30;100.00;98532.66;5068330;28;20588;-75
2023/03/20 07:18:37;;;;;;;2.20;1.20;;;;;;;10.27;100.00;98532.88;5070666;28;20221;-76
2023/03/20 07:21:06;;;;;;;2.53;1.43;;;;;;;10.27;100.00;98540.78;5070158;28;20211;-76
2023/03/20 07:23:35;;;;;;;2.33;1.40;;;;;;;10.30;100.00;98545.88;5067175;28;20596;-75
2023/03/20 07:26:02;;;;;;;1.70;1.40;;;;;;;10.29;100.00;98549.47;5070324;28;20620;-76
2023/03/20 07:28:28;;;;;;;1.70;1.30;;;;;;;10.22;100.00;98548.13;5070890;28;20211;-76
2023/03/20 07:30:55;;;;;;;1.70;1.33;;;;;;;10.11;100.00;98540.00;5068825;28;20227;-75
2023/03/20 07:33:22;;;;;;;1.10;1.00;;;;;;;10.04;100.00;98543.97;5071120;28;20264;-76
2023/03/20 07:35:52;;;;;;;1.30;1.20;;;;;;;10.01;100.00;98541.47;5070420;28;20841;-75
2023/03/20 07:38:20;;;;;;;1.40;1.30;;;;;;;10.04;100.00;98539.53;5069432;28;20228;-76
2023/03/20 07:40:47;;;;;;;1.97;1.30;;;;;;;10.06;100.00;98545.59;5070970;28;20208;-76
2023/03/20 07:43:14;;;;;;;2.10;1.77;;;;;;;10.18;100.00;98542.19;5071008;28;20309;-74
2023/03/20 07:45:40;;;;;;;1.60;1.30;;;;;;;10.28;100.00;98547.75;5069458;28;20227;-75
2023/03/20 07:48:07;;;;;;;1.30;1.20;;;;;;;10.42;100.00;98545.13;5071098;28;20305;-76
2023/03/20 07:50:34;;;;;;;1.43;1.33;;;;;;;10.41;100.00;98544.25;5070143;28;20623;-76
2023/03/20 07:53:00;;;;;;;2.47;1.43;;;;;;;10.42;100.00;98545.13;5069699;28;20217;-76
2023/03/20 07:55:28;;;;;;;1.67;1.50;;;;;;;10.48;100.00;98539.44;5071128;28;20593;-75
2023/03/20 07:57:55;;;;;;;2.57;1.50;;;;;;;10.58;100.00;98530.00;5071347;28;20207;-74
2023/03/20 08:00:21;;;;;;;1.30;1.20;;;;;;;10.71;100.00;98533.56;5071073;28;20230;-75
2023/03/20 08:02:48;;;;;;;1.87;1.37;;;;;;;10.90;100.00;98531.44;5071145;28;20542;-74
2023/03/20 08:05:15;;;;;;;1.30;1.20;;;;;;;11.08;100.00;98530.25;5071098;28;20244;-74
2023/03/20 08:07:41;;;;;;;1.40;1.20;;;;;;;11.20;100.00;98530.28;5070952;28;20660;-75
2023/03/20 08:10:09;;;;;;;1.10;1.00;;;;;;;11.41;100.00;98543.94;5071537;28;20212;-74
2023/03/20 08:12:36;;;;;;;1.47;1.20;;;;;;;11.50;100.00;98548.63;5074997;28;20677;-73
2023/03/20 08:15:04;;;;;;;1.65;1.50;;;;;;;11.49;100.00;98536.34;5074257;28;20446;-74
2023/03/20 08:17:31;;;;;;;1.43;1.30;;;;;;;11.38;100.00;98537.03;5074885;28;20231;-76
2023/03/20 08:19:57;;;;;;;1.40;1.00;;;;;;;11.34;100.00;98538.19;5074753;28;20211;-76
2023/03/20 08:22:23;;;;;;;3.07;1.30;;;;;;;11.28;100.00;98553.63;5074821;28;20211;-76
2023/03/20 08:24:50;;;;;;;1.50;1.40;;;;;;;11.23;100.00;98548.63;5074943;28;20203;-74
2023/03/20 08:27:17;;;;;;;1.20;1.10;;;;;;;11.21;100.00;98553.19;5074368;28;20231;-74
2023/03/20 08:29:45;;;;;;;3.20;1.33;;;;;;;11.23;100.00;98550.41;5074497;28;20703;-76
2023/03/20 08:32:11;;;;;;;1.57;1.10;;;;;;;11.37;100.00;98550.38;5074827;28;20215;-74
2023/03/20 08:34:38;;;;;;;0.90;0.90;;;;;;;11.47;99.66;98540.88;5074709;28;20231;-74
2023/03/20 08:37:04;;;;;;;1.80;0.97;;;;;;;11.65;96.51;98537.03;5074335;28;20235;-74
2023/03/20 08:39:32;;;;;;;1.00;0.90;;;;;;;11.82;97.26;98534.09;5074377;28;20206;-74
2023/03/20 08:41:58;;;;;;;1.27;1.10;;;;;;;11.91;94.32;98533.47;5074356;28;20222;-75
2023/03/20 08:44:25;;;;;;;0.77;0.77;;;;;;;12.01;93.95;98529.25;5074388;28;20204;-75
2023/03/20 08:46:53;;;;;;;1.40;1.20;;;;;;;12.09;93.99;98527.75;5074338;28;20234;-75
2023/03/20 08:49:20;;;;;;;1.53;1.40;;;;;;;12.15;90.86;98515.88;5073943;28;20312;-75
2023/03/20 08:51:47;;;;;;;2.23;1.50;;;;;;;12.22;89.65;98519.84;5074197;28;20218;-75
2023/03/20 08:54:14;;;;;;;1.93;1.57;;;;;;;12.27;86.10;98509.72;5071487;28;20211;-75
2023/03/20 08:56:41;;;;;;;4.23;1.50;;;;;;;12.23;85.03;98498.50;5073280;28;20238;-75
2023/03/20 08:59:07;;;;;;;2.23;1.50;;;;;;;12.20;84.92;98508.47;5074320;28;20215;-76
2023/03/20 09:01:34;;;;;;;2.23;1.60;;;;;;;12.11;86.25;98519.72;5072123;28;20210;-75
2023/03/20 09:04:01;;;;;;;2.23;1.50;;;;;;;12.10;88.05;98533.94;5073693;28;20211;-75
2023/03/20 09:06:28;;;;;;;1.80;1.70;;;;;;;12.17;88.90;98529.91;5073948;28;20219;-75
2023/03/20 09:08:55;;;;;;;1.40;1.30;;;;;;;12.23;88.40;98521.53;5073857;28;20560;-76
2023/03/20 09:11:22;;;;;;;2.63;1.33;;;;;;;12.36;87.42;98517.88;5074193;28;20663;-74
2023/03/20 09:13:48;;;;;;;1.73;1.50;;;;;;;12.53;88.79;98528.16;5074676;28;20211;-74
2023/03/20 09:16:15;;;;;;;1.73;1.40;;;;;;;12.70;86.81;98519.00;5074803;28;20615;-74
2023/03/20 09:18:41;;;;;;;2.33;1.43;;;;;;;12.88;85.06;98525.63;5073705;28;20208;-74
2023/03/20 09:21:09;;;;;;;2.47;1.60;;;;;;;12.99;84.24;98526.59;5073364;28;20576;-74
2023/03/20 09:23:36;;;;;;;1.60;1.50;;;;;;;13.07;83.73;98523.41;5072806;28;20209;-75
2023/03/20 09:26:02;;;;;;;1.80;1.50;;;;;;;13.05;83.62;98526.16;5073608;28;20239;-74
2023/03/20 09:28:29;;;;;;;3.50;1.70;;;;;;;13.16;82.09;98509.44;5073666;28;20215;-80
2023/03/20 09:30:56;;;;;;;2.70;1.70;;;;;;;13.10;79.95;98502.78;5073084;28;20872;-75
2023/03/20 09:33:23;;;;;;;1.83;1.67;;;;;;;13.05;78.19;98498.75;5072490;28;20656;-75
2023/03/20 09:35:49;;;;;;;2.10;1.80;;;;;;;13.22;78.58;98509.00;5073425;28;20414;-75
2023/03/20 09:38:17;;;;;;;3.53;1.37;;;;;;;13.28;79.40;98521.81;5073290;28;20212;-76
2023/03/20 09:40:52;;;;;;;2.50;1.90;;;;;;;13.30;77.80;98514.56;5073216;28;20214;-74
2023/03/20 09:43:28;;;;;;;3.13;2.00;;;;;;;13.28;76.75;98503.22;5073318;28;20595;-75
2023/03/20 09:46:04;;;;;;;1.67;1.57;;;;;;;13.12;75.71;98506.16;5073204;28;20223;-76
2023/03/20 09:48:40;;;;;;;1.70;1.60;;;;;;;13.24;75.52;98509.72;5073459;28;20236;-76
2023/03/20 09:51:21;;;;;;;1.77;1.67;;;;;;;13.35;74.97;98501.81;5072975;28;20207;-76
2023/03/20 09:53:54;;;;;;;2.23;1.60;;;;;;;13.40;75.74;98510.28;5073105;28;20217;-76
2023/03/20 09:56:24;;;;;;;2.63;1.63;;;;;;;13.36;76.14;98516.78;5073262;28;20290;-75
2023/03/20 09:58:54;;;;;;;1.97;1.73;;;;;;;13.50;76.44;98516.63;5073180;28;20675;-75
2023/03/20 10:01:24;;;;;;;3.07;2.10;;;;;;;13.67;75.91;98518.81;5072979;28;20208;-75
2023/03/20 10:03:54;;;;;;;2.20;2.00;;;;;;;13.41;75.85;98514.63;5072924;28;20202;-77
2023/03/20 10:06:20;;;;;;;2.40;2.00;;;;;;;13.47;76.20;98516.81;5072978;28;20353;-77
2023/03/20 10:08:48;;;;;;;2.57;1.90;;;;;;;13.38;76.26;98517.53;5072697;28;20211;-75
2023/03/20 10:11:32;;;;;;;2.73;2.20;;;;;;;13.24;76.07;98521.19;5072984;28;20234;-76
2023/03/20 10:14:12;;;;;;;2.23;1.80;;;;;;;13.37;76.70;98523.78;5072673;28;20208;-76
2023/03/20 10:16:48;;;;;;;2.90;2.10;;;;;;;13.17;76.00;98521.75;5072668;28;20690;-78
2023/03/20 10:19:23;;;;;;;2.53;2.20;;;;;;;13.22;76.88;98523.13;5072315;28;20218;-76
2023/03/20 10:21:56;;;;;;;2.10;1.90;;;;;;;13.06;76.03;98525.19;5072943;28;20217;-75
2023/03/20 10:24:29;;;;;;;2.23;1.97;;;;;;;13.07;76.57;98526.06;5072642;28;20203;-77
2023/03/20 10:27:00;;;;;;;3.07;2.37;;;;;;;13.07;77.54;98534.84;5072345;28;20696;-77
2023/03/20 10:29:38;;;;;;;2.63;2.40;;;;;;;13.13;76.88;98538.84;5072086;28;20220;-76
2023/03/20 10:32:12;;;;;;;2.87;2.10;;;;;;;13.09;77.97;98540.03;5072490;28;20207;-76
2023/03/20 10:34:53;;;;;;;2.30;2.10;;;;;;;13.06;76.00;98526.97;5071574;28;20211;-76
2023/03/20 10:37:39;;;;;;;2.53;2.33;;;;;;;13.02;77.24;98539.63;5072291;28;20239;-76
2023/03/20 10:40:29;;;;;;;3.27;2.47;;;;;;;12.83;76.49;98530.44;5071836;28;20220;-76
2023/03/20 10:43:00;;;;;;;3.30;3.00;;;;;;;12.64;78.19;98532.69;5072514;28;20712;-76
2023/03/20 10:45:34;;;;;;;5.10;3.17;;;;;;;12.73;77.57;98529.41;5072193;28;20220;-76
2023/03/20 10:48:07;;;;;;;3.63;3.00;;;;;;;12.64;79.19;98536.19;5072305;28;20211;-75
2023/03/20 10:50:40;;;;;;;5.03;3.60;;;;;;;12.64;78.70;98530.03;5071647;28;20666;-75
2023/03/20 10:53:08;;;;;;;3.73;3.20;;;;;;;12.69;79.93;98531.44;5072268;28;20206;-76
2023/03/20 10:55:39;;;;;;;4.70;3.37;;;;;;;12.81;81.85;98545.59;5071792;28;20227;-76
2023/03/20 10:58:19;;;;;;;4.77;3.50;;;;;;;12.84;80.94;98529.47;5071980;28;20258;-75
2023/03/20 11:00:46;;;;;;;5.70;3.63;;;;;;;13.03;80.38;98528.06;5071474;28;20211;-76
2023/03/20 11:03:22;;;;;;;5.07;3.87;;;;;;;12.99;78.20;98517.78;5072107;28;20211;-75
2023/03/20 11:05:54;;;;;;;4.83;3.73;;;;;;;13.06;78.92;98526.97;5071837;28;20227;-75
2023/03/20 11:08:23;;;;;;;4.33;3.60;;;;;;;13.08;80.31;98522.44;5071841;28;20213;-76
2023/03/20 11:10:59;;;;;;;4.73;3.67;;;;;;;12.97;79.56;98517.88;5071264;28;20675;-76
2023/03/20 11:13:31;;;;;;;4.43;3.70;;;;;;;13.06;77.96;98506.63;5071689;28;20303;-76
2023/03/20 11:16:18;;;;;;;4.33;3.47;;;;;;;12.84;76.65;98511.75;5071686;28;20325;-77
2023/03/20 11:18:44;;;;;;;4.60;3.67;;;;;;;12.90;78.65;98521.09;5071628;28;20246;-77
2023/03/20 11:21:17;;;;;;;4.93;4.20;;;;;;;12.89;77.19;98520.22;5071210;28;20240;-77
2023/03/20 11:23:44;;;;;;;7.30;4.33;;;;;;;13.11;78.19;98522.19;5071459;28;20215;-77
2023/03/20 11:26:16;;;;;;;6.40;4.13;;;;;;;13.23;77.13;98521.28;5083563;22;20297;-78
2023/03/20 11:28:47;;;;;;;4.90;4.10;;;;;;;13.29;76.14;98513.75;5071596;28;20248;-79
2023/03/20 11:31:19;;;;;;;8.73;4.80;;;;;;;13.29;75.67;98518.19;5070774;28;20589;-77
2023/03/20 11:33:50;;;;;;;5.07;4.27;;;;;;;13.21;76.25;98517.91;5071407;28;20208;-79
2023/03/20 11:36:22;;;;;;;6.47;4.90;;;;;;;12.93;76.30;98515.53;5071323;28;20231;-77
2023/03/20 11:38:50;;;;;;;7.43;4.60;;;;;;;12.79;75.87;98513.91;5071367;28;20227;-77
2023/03/20 11:41:24;;;;;;;6.03;3.87;;;;;;;12.92;73.05;98497.94;5070903;28;20211;-76
2023/03/20 11:43:51;;;;;;;6.83;4.63;;;;;;;12.75;74.98;98503.59;5071136;28;20209;-77